Time;durP1;ratioP1;P1;durP2;ratioP2;P2;SDS_P1;SDS_P2;PMS_P1;PMS_P2;Temp;Humidity;BMP_temperature;BMP_pressure;BME280_temperature;BME280_humidity;BME280_pressure;Samples;Min_cycle;Max_cycle;Signal;HPM_P1;HPM_P2
2022/11/22 00:02:01;;;;;;;6.50;2.10;;;;;;;4.51;100.00;96854.06;5048471;28;20092;-79
2022/11/22 00:04:27;;;;;;;7.05;2.42;;;;;;;4.23;100.00;96811.53;5041822;28;20029;-80
2022/11/22 00:06:52;;;;;;;8.88;2.53;;;;;;;4.35;100.00;96832.09;5039531;28;20024;-79
2022/11/22 00:09:17;;;;;;;11.48;2.60;;;;;;;4.51;100.00;96844.16;5057707;28;20056;-78
2022/11/22 00:11:43;;;;;;;6.30;1.90;;;;;;;4.46;100.00;96832.47;5039338;28;20032;-79
2022/11/22 00:14:08;;;;;;;5.40;1.85;;;;;;;4.29;100.00;96799.97;5044003;28;20024;-79
2022/11/22 00:16:33;;;;;;;4.72;1.95;;;;;;;4.40;100.00;96812.69;5044620;28;20537;-79
2022/11/22 00:18:59;;;;;;;6.07;1.90;;;;;;;4.33;100.00;96779.78;5059218;28;20033;-78
2022/11/22 00:21:24;;;;;;;3.60;1.85;;;;;;;4.47;100.00;96797.41;5057854;28;20021;-80
2022/11/22 00:23:55;;;;;;;7.38;1.90;;;;;;;4.58;100.00;96804.78;5039661;28;20025;-77
2022/11/22 00:26:20;;;;;;;8.93;1.88;;;;;;;4.68;100.00;96812.34;5032852;28;20029;-78
2022/11/22 00:28:45;;;;;;;5.03;2.05;;;;;;;4.73;100.00;96791.09;5056369;28;20039;-77
2022/11/22 00:31:11;;;;;;;3.45;1.65;;;;;;;4.63;100.00;96773.84;5057933;28;20510;-79
2022/11/22 00:33:36;;;;;;;5.72;1.58;;;;;;;4.77;100.00;96804.91;5040404;28;20021;-78
2022/11/22 00:36:01;;;;;;;5.70;1.73;;;;;;;4.65;100.00;96783.31;5040155;28;20029;-79
2022/11/22 00:38:27;;;;;;;6.70;2.20;;;;;;;4.67;100.00;96801.84;5037555;28;20021;-78
2022/11/22 00:40:52;;;;;;;3.40;1.58;;;;;;;4.68;100.00;96784.75;5034042;28;20478;-78
2022/11/22 00:43:17;;;;;;;5.20;1.98;;;;;;;4.46;100.00;96774.38;5042275;28;20075;-79
2022/11/22 00:45:42;;;;;;;7.93;2.63;;;;;;;4.57;100.00;96787.06;5037317;28;20029;-79
2022/11/22 00:48:08;;;;;;;7.35;2.65;;;;;;;4.67;100.00;96809.91;5037886;28;20502;-80
2022/11/22 00:50:33;;;;;;;6.65;2.20;;;;;;;4.56;100.00;96801.50;5057769;28;20044;-80
2022/11/22 00:52:59;;;;;;;5.57;2.25;;;;;;;4.49;100.00;96798.03;5041102;28;20364;-78
2022/11/22 00:55:24;;;;;;;7.00;2.60;;;;;;;4.51;100.00;96795.16;5040408;28;20029;-79
2022/11/22 00:57:49;;;;;;;5.40;2.30;;;;;;;4.45;100.00;96790.63;5040555;28;20046;-79
2022/11/22 01:00:15;;;;;;;4.22;2.03;;;;;;;4.50;100.00;96806.88;5041132;28;20036;-80
2022/11/22 01:02:40;;;;;;;6.97;2.03;;;;;;;4.53;100.00;96811.81;5056324;28;20025;-79
2022/11/22 01:05:06;;;;;;;4.80;1.90;;;;;;;4.58;100.00;96818.19;5040323;28;20037;-78
2022/11/22 01:07:31;;;;;;;4.82;1.80;;;;;;;4.38;100.00;96779.97;5038396;28;20043;-79
2022/11/22 01:09:57;;;;;;;7.35;2.20;;;;;;;4.36;100.00;96779.34;5038991;28;20032;-80
2022/11/22 01:12:22;;;;;;;4.57;1.98;;;;;;;4.40;100.00;96812.69;5039451;28;20025;-78
2022/11/22 01:14:47;;;;;;;5.60;1.85;;;;;;;4.47;100.00;96813.47;5028712;28;20052;-79
2022/11/22 01:17:13;;;;;;;3.80;1.77;;;;;;;4.59;100.00;96832.38;5035365;28;20078;-78
2022/11/22 01:19:38;;;;;;;5.47;1.70;;;;;;;4.80;100.00;96848.13;5033749;28;20060;-78
2022/11/22 01:22:03;;;;;;;6.45;2.03;;;;;;;4.70;100.00;96838.94;5035646;28;20028;-78
2022/11/22 01:24:29;;;;;;;5.90;2.28;;;;;;;4.79;100.00;96854.53;5053939;28;20482;-79
2022/11/22 01:26:54;;;;;;;3.50;1.70;;;;;;;4.88;100.00;96863.13;5054002;28;20687;-78
2022/11/22 01:29:20;;;;;;;6.65;1.50;;;;;;;4.79;100.00;96841.16;5039456;28;20088;-78
2022/11/22 01:31:45;;;;;;;3.45;1.58;;;;;;;4.71;100.00;96827.16;5057735;28;20025;-79
2022/11/22 01:34:10;;;;;;;4.32;2.10;;;;;;;4.78;100.00;96831.44;5059077;28;20086;-79
2022/11/22 01:36:35;;;;;;;5.47;1.75;;;;;;;4.73;100.00;96830.44;5040824;28;20466;-79
2022/11/22 01:39:01;;;;;;;9.80;2.35;;;;;;;4.80;100.00;96845.47;5031833;28;20033;-79
2022/11/22 01:41:26;;;;;;;3.85;1.85;;;;;;;4.89;100.00;96847.88;5038236;28;20031;-79
2022/11/22 01:43:51;;;;;;;6.60;2.00;;;;;;;4.75;100.00;96834.56;5033654;28;20116;-78
2022/11/22 01:46:33;;;;;;;8.02;2.42;;;;;;;4.76;100.00;96814.75;5036794;28;20521;-79
2022/11/22 01:49:13;;;;;;;8.25;1.98;;;;;;;4.97;100.00;96840.41;5034146;28;20055;-79
2022/11/22 01:51:41;;;;;;;4.18;2.35;;;;;;;5.09;100.00;96859.31;5050648;28;20029;-79
2022/11/22 01:54:10;;;;;;;6.43;2.30;;;;;;;4.98;100.00;96852.78;5035976;28;20050;-78
2022/11/22 01:56:38;;;;;;;4.72;1.92;;;;;;;4.98;100.00;96847.41;5032940;28;20119;-78
2022/11/22 01:59:12;;;;;;;3.60;1.85;;;;;;;5.00;100.00;96845.34;5034789;28;20116;-79
2022/11/22 02:01:37;;;;;;;7.78;2.30;;;;;;;5.09;100.00;96864.66;5036982;28;20031;-79
2022/11/22 02:04:06;;;;;;;5.85;1.98;;;;;;;5.07;100.00;96856.00;5055537;28;20024;-80
2022/11/22 02:06:41;;;;;;;7.03;2.08;;;;;;;4.96;100.00;96849.47;5037502;28;20441;-78
2022/11/22 02:09:11;;;;;;;6.22;2.20;;;;;;;5.14;100.00;96858.66;5048903;28;20033;-79
2022/11/22 02:11:40;;;;;;;4.25;2.00;;;;;;;4.88;100.00;96820.28;5035093;28;20396;-79
2022/11/22 02:14:08;;;;;;;4.28;2.20;;;;;;;5.06;100.00;96862.41;5057618;28;20028;-79
2022/11/22 02:16:34;;;;;;;5.70;2.40;;;;;;;5.00;100.00;96847.19;5039272;28;20033;-78
2022/11/22 02:19:00;;;;;;;5.38;2.40;;;;;;;4.97;100.00;96850.28;5050484;28;20021;-80
2022/11/22 02:21:27;;;;;;;6.82;2.67;;;;;;;4.98;100.00;96858.13;5055466;28;20462;-78
2022/11/22 02:24:00;;;;;;;6.43;2.55;;;;;;;5.09;100.00;96879.94;5037586;28;20028;-78
2022/11/22 02:26:28;;;;;;;8.30;2.92;;;;;;;5.12;100.00;96871.44;5040859;28;20124;-80
2022/11/22 02:28:58;;;;;;;5.90;2.60;;;;;;;4.97;100.00;96859.16;5025195;28;20039;-78
2022/11/22 02:31:33;;;;;;;8.27;2.67;;;;;;;5.04;100.00;96875.22;5053922;28;20116;-78
2022/11/22 02:33:59;;;;;;;4.75;2.40;;;;;;;5.00;100.00;96860.59;5035507;28;20021;-78
2022/11/22 02:36:24;;;;;;;9.95;3.13;;;;;;;5.01;100.00;96870.28;5018342;28;20029;-79
2022/11/22 02:38:49;;;;;;;9.25;3.88;;;;;;;5.10;100.00;96871.66;5034910;28;20032;-79
2022/11/22 02:41:15;;;;;;;5.63;3.00;;;;;;;5.13;100.00;96881.13;5038915;28;20232;-78
2022/11/22 02:43:44;;;;;;;6.82;2.72;;;;;;;5.18;100.00;96873.25;5033701;28;20111;-78
2022/11/22 02:46:14;;;;;;;5.72;2.38;;;;;;;5.26;100.00;96892.56;5036355;28;20029;-79
2022/11/22 02:48:41;;;;;;;3.97;2.10;;;;;;;5.08;100.00;96851.47;5033707;28;20052;-79
2022/11/22 02:51:06;;;;;;;5.80;1.95;;;;;;;5.29;100.00;96883.28;5033376;28;20033;-78
2022/11/22 02:53:31;;;;;;;4.85;2.08;;;;;;;5.34;100.00;96885.31;5052238;28;20036;-78
2022/11/22 02:55:57;;;;;;;4.22;2.00;;;;;;;5.28;100.00;96878.97;5024439;28;20052;-79
2022/11/22 02:58:22;;;;;;;7.10;1.85;;;;;;;5.23;100.00;96866.19;5045873;28;20025;-79
2022/11/22 03:00:47;;;;;;;5.43;2.20;;;;;;;5.10;100.00;96857.44;5042354;28;20085;-79
2022/11/22 03:03:13;;;;;;;5.05;2.30;;;;;;;5.19;100.00;96874.91;5036882;28;20025;-78
2022/11/22 03:05:38;;;;;;;3.05;1.85;;;;;;;5.12;100.00;96860.72;5037323;28;20029;-81
2022/11/22 03:08:03;;;;;;;6.88;2.47;;;;;;;5.02;100.00;96842.44;5038658;28;20023;-79
2022/11/22 03:10:29;;;;;;;7.55;1.90;;;;;;;5.22;100.00;96869.13;5039662;28;20505;-79
2022/11/22 03:12:56;;;;;;;6.22;2.00;;;;;;;5.23;100.00;96876.09;5049077;28;20045;-80
2022/11/22 03:15:21;;;;;;;6.75;2.45;;;;;;;5.23;100.00;96879.59;5048234;28;20119;-81
2022/11/22 03:17:47;;;;;;;9.52;1.88;;;;;;;5.32;100.00;96912.34;5048490;28;20049;-80
2022/11/22 03:20:12;;;;;;;6.45;2.10;;;;;;;5.19;100.00;96901.72;5039795;28;20459;-80
2022/11/22 03:22:38;;;;;;;6.43;2.15;;;;;;;5.12;100.00;96901.75;5035746;28;20033;-79
2022/11/22 03:25:03;;;;;;;7.50;2.40;;;;;;;5.11;100.00;96899.28;5040780;28;20072;-80
2022/11/22 03:27:29;;;;;;;4.07;1.95;;;;;;;5.00;100.00;96898.09;5041879;28;20021;-78
2022/11/22 03:29:54;;;;;;;5.80;2.08;;;;;;;4.67;100.00;96866.13;5041006;28;20032;-80
2022/11/22 03:32:19;;;;;;;7.53;2.75;;;;;;;4.76;100.00;96905.03;5041469;28;20110;-80
2022/11/22 03:34:45;;;;;;;5.03;2.50;;;;;;;4.79;100.00;96912.63;5037588;28;20221;-79
2022/11/22 03:37:10;;;;;;;4.95;2.00;;;;;;;4.79;100.00;96923.34;5044417;28;20025;-80
2022/11/22 03:39:35;;;;;;;4.43;1.90;;;;;;;4.89;100.00;96918.34;5038393;28;20033;-79
2022/11/22 03:42:00;;;;;;;4.90;2.10;;;;;;;4.84;100.00;96907.47;5042211;28;20376;-79
2022/11/22 03:44:26;;;;;;;5.93;2.40;;;;;;;4.91;100.00;96918.97;5042065;28;20033;-80
2022/11/22 03:46:51;;;;;;;4.97;2.28;;;;;;;4.63;100.00;96881.78;5039961;28;20064;-80
2022/11/22 03:49:16;;;;;;;5.65;2.00;;;;;;;4.90;100.00;96914.66;5023642;28;20043;-80
2022/11/22 03:51:42;;;;;;;8.65;1.90;;;;;;;4.95;100.00;96917.53;5056705;28;20447;-79
2022/11/22 03:54:07;;;;;;;4.00;1.88;;;;;;;4.94;100.00;96921.22;5047063;28;20021;-79
2022/11/22 03:56:32;;;;;;;5.10;1.75;;;;;;;4.95;100.00;96914.00;5043445;28;20090;-79
2022/11/22 03:58:57;;;;;;;3.05;1.70;;;;;;;4.62;100.00;96866.78;5041030;28;20088;-79
2022/11/22 04:01:23;;;;;;;6.20;1.92;;;;;;;5.00;100.00;96933.78;5066899;28;20061;-79
2022/11/22 04:03:48;;;;;;;6.28;1.98;;;;;;;4.87;100.00;96914.25;5039211;28;20375;-79
2022/11/22 04:06:14;;;;;;;6.50;1.98;;;;;;;4.97;100.00;96931.50;5036844;28;20029;-79
2022/11/22 04:08:39;;;;;;;8.35;2.22;;;;;;;4.96;100.00;96937.91;5034390;28;20056;-79
2022/11/22 04:11:04;;;;;;;6.60;1.90;;;;;;;4.84;100.00;96928.91;5040487;28;20074;-79
2022/11/22 04:16:14;;;;;;;5.97;2.15;;;;;;;4.78;100.00;96943.16;5056978;28;20067;-81
2022/11/22 04:18:39;;;;;;;6.30;2.40;;;;;;;4.72;100.00;96957.41;5058584;28;20479;-81
2022/11/22 04:25:12;;;;;;;6.05;3.00;;;;;;;4.27;100.00;96901.06;5058461;28;20044;-82
2022/11/22 04:26:33;;;;;;;5.95;2.67;;;;;;;4.41;100.00;96939.38;5060113;28;20037;-80
2022/11/22 04:28:59;;;;;;;7.97;3.10;;;;;;;4.43;100.00;96956.88;5040963;28;20016;-81
2022/11/22 04:34:08;;;;;;;4.97;2.00;;;;;;;4.43;100.00;96972.94;5054723;28;20047;-80
2022/11/22 04:36:33;;;;;;;3.58;1.98;;;;;;;4.19;100.00;96942.28;5041012;28;20024;-81
2022/11/22 04:38:58;;;;;;;8.23;2.13;;;;;;;4.02;100.00;96930.38;5051084;28;20027;-82
2022/11/22 04:41:24;;;;;;;3.97;1.75;;;;;;;4.06;100.00;96948.50;5042247;28;20040;-81
2022/11/22 04:46:33;;;;;;;6.47;2.30;;;;;;;4.07;100.00;96971.53;5047574;28;20045;-81
2022/11/22 04:48:58;;;;;;;6.15;2.15;;;;;;;3.96;100.00;96980.19;5035943;28;20029;-82
2022/11/22 04:54:08;;;;;;;5.13;2.42;;;;;;;3.61;100.00;96948.28;5052639;28;20036;-82
2022/11/22 04:56:33;;;;;;;5.70;2.30;;;;;;;3.53;100.00;96934.28;5057054;28;20029;-82
2022/11/22 04:58:58;;;;;;;4.75;2.13;;;;;;;3.78;100.00;96996.03;5036869;28;20013;-81
2022/11/22 05:01:24;;;;;;;5.10;2.03;;;;;;;3.53;100.00;96967.19;5055074;28;20118;-83
2022/11/22 05:03:49;;;;;;;8.63;2.72;;;;;;;3.43;100.00;96962.25;5034808;28;20085;-81
2022/11/22 05:06:15;;;;;;;10.13;3.20;;;;;;;3.31;100.00;96955.03;5029788;28;20490;-83
2022/11/22 05:08:40;;;;;;;6.50;3.50;;;;;;;2.84;100.00;96896.16;5054872;28;20020;-79
2022/11/22 05:11:05;;;;;;;7.63;3.53;;;;;;;3.24;100.00;96963.84;5042723;28;20025;-79
2022/11/22 05:13:41;;;;;;;7.68;4.00;;;;;;;3.39;100.00;96982.41;5052508;28;20360;-83
2022/11/22 05:19:31;;;;;;;6.47;3.25;;;;;;;3.51;100.00;96972.75;5060931;28;20046;-82
2022/11/22 05:21:56;;;;;;;19.97;6.97;;;;;;;3.56;100.00;96982.81;5035359;28;20032;-77
2022/11/22 05:24:21;;;;;;;31.40;11.50;;;;;;;3.71;100.00;96982.63;5032076;28;20290;-80
2022/11/22 05:26:46;;;;;;;17.70;9.25;;;;;;;3.79;100.00;96995.00;5031984;28;20622;-77
2022/11/22 05:32:34;;;;;;;13.10;5.10;;;;;;;3.90;100.00;97011.28;5058905;28;20044;-79
2022/11/22 05:35:00;;;;;;;12.52;4.32;;;;;;;3.78;100.00;96996.84;5055874;28;20033;-78
2022/11/22 05:37:25;;;;;;;8.90;4.65;;;;;;;3.79;100.00;97000.34;5039416;28;20033;-80
2022/11/22 05:39:50;;;;;;;8.70;3.15;;;;;;;3.88;100.00;97017.84;5055027;28;20395;-77
2022/11/22 05:42:16;;;;;;;7.10;2.65;;;;;;;3.54;100.00;96974.19;5036112;28;20109;-77
2022/11/22 05:44:42;;;;;;;8.52;3.05;;;;;;;3.52;100.00;96981.59;5038944;28;20044;-76
2022/11/22 05:47:08;;;;;;;10.90;3.55;;;;;;;3.64;100.00;97001.38;5052728;28;20112;-79
2022/11/22 05:49:34;;;;;;;11.70;3.53;;;;;;;3.59;100.00;97019.88;5057580;28;20017;-79
2022/11/22 05:51:59;;;;;;;7.80;4.03;;;;;;;3.49;100.00;97022.13;5041729;28;20016;-77
2022/11/22 05:54:25;;;;;;;11.57;4.38;;;;;;;3.08;100.00;96943.66;5052448;28;20028;-78
2022/11/22 05:56:50;;;;;;;9.88;3.65;;;;;;;3.56;100.00;97017.56;5035213;28;20088;-78
2022/11/22 05:59:15;;;;;;;21.45;4.25;;;;;;;3.36;100.00;96998.03;5059915;28;20036;-78
2022/11/22 06:01:41;;;;;;;11.10;3.63;;;;;;;3.55;100.00;97015.13;5039073;28;20025;-80
2022/11/22 06:04:53;;;;;;;9.07;2.72;;;;;;;3.73;100.00;97029.56;5059219;28;20040;-84
2022/11/22 06:07:57;;;;;;;10.43;2.90;;;;;;;3.87;100.00;97037.59;5034775;28;20075;-83
2022/11/22 06:10:23;;;;;;;9.60;2.60;;;;;;;3.59;100.00;96987.78;5050214;28;20391;-82
2022/11/22 06:12:48;;;;;;;8.98;2.55;;;;;;;3.78;100.00;97017.44;5037572;28;20021;-81
2022/11/22 06:15:13;;;;;;;11.43;2.85;;;;;;;3.84;100.00;97025.44;5054292;28;20040;-84
2022/11/22 06:17:38;;;;;;;7.97;2.40;;;;;;;3.57;100.00;96999.72;5037998;28;20080;-82
2022/11/22 06:20:04;;;;;;;12.93;2.88;;;;;;;3.59;100.00;97016.34;5036198;28;20039;-79
2022/11/22 06:22:29;;;;;;;9.80;2.90;;;;;;;3.80;100.00;97052.81;5054995;28;20440;-83
2022/11/22 06:24:55;;;;;;;7.45;3.45;;;;;;;3.59;100.00;97029.72;5038205;28;20036;-80
2022/11/22 06:27:20;;;;;;;11.57;2.70;;;;;;;3.54;100.00;97041.03;5056199;28;20028;-83
2022/11/22 06:29:45;;;;;;;11.50;3.20;;;;;;;3.49;100.00;97025.59;5038111;28;20029;-76
2022/11/22 06:32:12;;;;;;;11.77;5.82;;;;;;;3.43;100.00;97031.78;5058844;28;20047;-79
2022/11/22 06:34:37;;;;;;;14.02;4.70;;;;;;;3.28;100.00;97013.22;5043200;28;20028;-79
2022/11/22 06:37:02;;;;;;;11.48;4.70;;;;;;;3.32;100.00;97018.16;5053677;28;20430;-80
2022/11/22 06:39:30;;;;;;;16.02;5.47;;;;;;;3.26;100.00;97015.25;5033123;28;20060;-79
2022/11/22 06:41:55;;;;;;;14.35;6.28;;;;;;;3.34;100.00;97045.50;5049453;28;20167;-82
2022/11/22 06:44:21;;;;;;;22.92;8.07;;;;;;;3.15;100.00;97034.53;5049651;28;20272;-81
2022/11/22 06:46:46;;;;;;;19.80;7.50;;;;;;;3.17;100.00;97040.53;5043870;28;20033;-79
2022/11/22 06:49:11;;;;;;;18.25;7.57;;;;;;;3.25;100.00;97058.22;5029684;28;20394;-80
2022/11/22 06:51:36;;;;;;;13.43;7.10;;;;;;;3.25;100.00;97051.03;5033717;28;20033;-80
2022/11/22 06:54:02;;;;;;;14.35;5.35;;;;;;;3.11;100.00;97054.66;5058657;28;20035;-80
2022/11/22 06:56:30;;;;;;;6.60;3.65;;;;;;;3.41;100.00;97124.69;5035263;28;20022;-80
2022/11/22 06:58:56;;;;;;;7.90;2.65;;;;;;;3.38;100.00;97116.25;5038487;28;20050;-80
2022/11/22 07:01:26;;;;;;;5.07;2.55;;;;;;;3.21;100.00;97100.53;5042343;28;20025;-79
2022/11/22 07:03:56;;;;;;;15.07;2.97;;;;;;;3.15;100.00;97096.00;5033632;28;20028;-82
2022/11/22 07:06:22;;;;;;;7.35;2.35;;;;;;;3.20;100.00;97117.63;5038859;28;20021;-88
2022/11/22 07:08:48;;;;;;;9.27;2.17;;;;;;;3.10;100.00;97101.13;5043400;28;20020;-85
2022/11/22 07:11:22;;;;;;;6.90;2.70;;;;;;;3.12;100.00;97090.22;5049777;28;20021;-85
2022/11/22 07:13:48;;;;;;;4.45;2.65;;;;;;;3.14;100.00;97099.69;5065265;28;20029;-89
2022/11/22 07:16:16;;;;;;;9.75;2.95;;;;;;;3.18;100.00;97092.94;5050098;28;20017;-85
2022/11/22 07:18:42;;;;;;;9.55;4.03;;;;;;;3.28;100.00;97111.28;5053618;28;20434;-86
2022/11/22 07:21:11;;;;;;;12.82;5.10;;;;;;;3.57;100.00;97152.94;5056857;28;20056;-87
2022/11/22 07:23:38;;;;;;;19.10;6.50;;;;;;;3.27;100.00;97123.81;5055482;28;20057;-83
2022/11/22 07:26:05;;;;;;;12.88;7.15;;;;;;;3.43;100.00;97127.16;5048429;28;20021;-80
2022/11/22 07:28:35;;;;;;;17.50;6.45;;;;;;;3.61;100.00;97153.34;5040676;28;20013;-80
2022/11/22 07:31:03;;;;;;;12.48;4.90;;;;;;;3.61;100.00;97146.16;5037362;28;20596;-80
2022/11/22 07:33:29;;;;;;;10.68;4.57;;;;;;;3.70;100.00;97157.53;5057205;28;20414;-82
2022/11/22 07:35:55;;;;;;;13.18;5.95;;;;;;;3.65;100.00;97171.47;5038304;28;20021;-77
2022/11/22 07:38:29;;;;;;;14.63;4.25;;;;;;;3.52;100.00;97136.66;5060278;28;20028;-81
2022/11/22 07:40:54;;;;;;;13.13;4.80;;;;;;;3.74;100.00;97178.28;5055594;28;20043;-82
2022/11/22 07:43:20;;;;;;;11.57;4.80;;;;;;;3.48;100.00;97128.22;5026533;28;20029;-83
2022/11/22 07:45:45;;;;;;;8.75;3.53;;;;;;;3.67;100.00;97150.72;5041383;28;20499;-85
2022/11/22 07:48:13;;;;;;;7.72;2.92;;;;;;;3.43;100.00;97121.81;5049629;28;20017;-78
2022/11/22 07:50:39;;;;;;;5.90;2.67;;;;;;;3.80;100.00;97182.03;5053822;28;20047;-77
2022/11/22 07:53:04;;;;;;;6.28;2.10;;;;;;;3.78;100.00;97161.88;5035227;28;20028;-76
2022/11/22 07:55:30;;;;;;;10.63;2.60;;;;;;;3.86;100.00;97150.97;5041891;28;20021;-81
2022/11/22 07:57:58;;;;;;;10.73;2.58;;;;;;;4.06;100.00;97180.44;5046734;28;20045;-82
2022/11/22 08:00:24;;;;;;;12.80;3.63;;;;;;;4.17;100.00;97202.13;5034388;28;20021;-80
2022/11/22 08:02:49;;;;;;;10.27;3.38;;;;;;;3.85;100.00;97147.50;5050845;28;20098;-79
2022/11/22 08:05:15;;;;;;;12.38;3.72;;;;;;;3.68;100.00;97114.91;5064349;28;20013;-78
2022/11/22 08:07:48;;;;;;;14.27;4.40;;;;;;;3.96;100.00;97146.06;5055483;28;20017;-79
2022/11/22 08:10:14;;;;;;;9.15;3.60;;;;;;;4.08;100.00;97173.88;5054321;28;20046;-79
2022/11/22 08:13:20;;;;;;;10.45;4.25;;;;;;;4.05;100.00;97158.22;5059565;28;20012;-79
2022/11/22 08:15:47;;;;;;;6.78;3.75;;;;;;;4.26;100.00;97194.72;5048302;28;20044;-77
2022/11/22 08:18:12;;;;;;;10.70;3.53;;;;;;;3.99;100.00;97143.00;5033837;28;20020;-78
2022/11/22 08:20:38;;;;;;;9.23;3.53;;;;;;;4.28;100.00;97178.47;5043015;28;20042;-78
2022/11/22 08:23:03;;;;;;;11.45;3.88;;;;;;;4.39;100.00;97180.53;5055654;28;20035;-77
2022/11/22 08:25:28;;;;;;;16.75;3.90;;;;;;;4.54;100.00;97175.81;5053411;28;20055;-78
2022/11/22 08:27:54;;;;;;;7.78;3.38;;;;;;;4.58;100.00;97174.38;5043597;28;20067;-78
2022/11/22 08:30:19;;;;;;;12.95;3.53;;;;;;;4.70;100.00;97171.09;5038592;28;20033;-78
2022/11/22 08:32:44;;;;;;;13.07;3.13;;;;;;;4.83;100.00;97179.94;5041003;28;20065;-78
2022/11/22 08:35:09;;;;;;;13.00;3.75;;;;;;;4.88;100.00;97168.59;5049536;28;20021;-78
2022/11/22 08:37:35;;;;;;;14.10;3.10;;;;;;;4.96;100.00;97165.72;5046064;28;20623;-78
2022/11/22 08:40:01;;;;;;;20.38;3.78;;;;;;;5.07;100.00;97161.56;5032288;28;20515;-78
2022/11/22 08:42:26;;;;;;;8.45;3.22;;;;;;;5.27;100.00;97164.22;5032848;28;20434;-79
2022/11/22 08:44:51;;;;;;;7.68;2.80;;;;;;;5.35;100.00;97147.91;5034198;28;20478;-79
2022/11/22 08:47:17;;;;;;;7.63;2.95;;;;;;;5.54;100.00;97126.59;5046262;28;20391;-78
2022/11/22 08:49:42;;;;;;;9.40;3.38;;;;;;;5.89;100.00;97148.50;5030250;28;20037;-90
2022/11/22 08:52:07;;;;;;;10.90;3.70;;;;;;;6.12;100.00;97153.38;5031769;28;20025;-86
2022/11/22 08:54:33;;;;;;;7.07;2.72;;;;;;;6.07;100.00;97132.53;5053804;28;20025;-84
2022/11/22 08:56:58;;;;;;;9.35;2.85;;;;;;;6.15;100.00;97132.25;5037463;28;20024;-85
2022/11/22 08:59:23;;;;;;;7.65;2.85;;;;;;;6.29;100.00;97135.72;5035446;28;20540;-84
2022/11/22 09:01:51;;;;;;;9.35;2.70;;;;;;;6.54;100.00;97122.28;5054799;28;20020;-85
2022/11/22 09:04:16;;;;;;;14.45;3.72;;;;;;;7.00;100.00;97139.06;5055370;28;20029;-84
2022/11/22 09:06:41;;;;;;;9.65;3.55;;;;;;;7.21;100.00;97119.00;5056412;28;20032;-79
2022/11/22 09:09:07;;;;;;;5.78;3.13;;;;;;;7.27;100.00;97101.13;5052488;28;20047;-82
2022/11/22 09:11:32;;;;;;;8.98;3.75;;;;;;;7.44;100.00;97099.47;5034296;28;20033;-83
2022/11/22 09:13:59;;;;;;;12.00;3.65;;;;;;;7.54;100.00;97102.44;5039623;28;20036;-85
2022/11/22 09:16:27;;;;;;;6.65;3.00;;;;;;;7.89;100.00;97115.28;5043148;28;20029;-79
2022/11/22 09:18:53;;;;;;;8.05;3.65;;;;;;;7.78;100.00;97089.97;5033987;28;20425;-80
2022/11/22 09:21:19;;;;;;;9.35;3.70;;;;;;;7.98;100.00;97103.13;5034963;28;20032;-81
2022/11/22 09:23:47;;;;;;;10.15;3.50;;;;;;;7.74;100.00;97107.59;5035712;28;20470;-82
2022/11/22 09:26:16;;;;;;;8.25;3.58;;;;;;;7.97;100.00;97106.88;5045687;28;20064;-85
2022/11/22 09:28:43;;;;;;;11.00;3.72;;;;;;;8.20;100.00;97126.84;5038902;28;20044;-85
2022/11/22 09:31:10;;;;;;;9.25;3.80;;;;;;;8.36;100.00;97126.22;5053053;28;20058;-83
2022/11/22 09:33:38;;;;;;;10.38;4.18;;;;;;;8.40;100.00;97113.13;5057505;28;20013;-86
2022/11/22 09:36:09;;;;;;;8.13;3.47;;;;;;;8.44;100.00;97128.63;5061407;28;20018;-82
2022/11/22 09:38:35;;;;;;;6.60;3.70;;;;;;;8.21;100.00;97093.50;5048130;28;20029;-82
2022/11/22 09:41:43;;;;;;;11.00;4.00;;;;;;;8.47;100.00;97136.22;5036010;28;20028;-82
2022/11/22 09:44:26;;;;;;;14.27;6.20;;;;;;;8.23;100.00;97127.22;5004337;28;20063;-82
2022/11/22 09:47:18;;;;;;;16.38;8.10;;;;;;;8.18;100.00;97140.56;5033203;28;20166;-82
2022/11/22 09:49:56;;;;;;;14.60;7.25;;;;;;;8.21;100.00;97155.47;5036526;28;20356;-83
2022/11/22 09:52:34;;;;;;;24.50;12.10;;;;;;;8.02;100.00;97149.28;5042568;28;20029;-83
2022/11/22 09:55:05;;;;;;;16.25;8.20;;;;;;;7.95;100.00;97148.56;5034981;28;20031;-83
2022/11/22 09:57:46;;;;;;;20.70;7.07;;;;;;;7.78;100.00;97142.94;5040219;28;20017;-84
2022/11/22 10:00:24;;;;;;;19.02;6.07;;;;;;;7.81;100.00;97156.81;5035544;28;20025;-84
2022/11/22 10:02:59;;;;;;;15.80;5.32;;;;;;;7.66;100.00;97161.75;5035500;28;20064;-85
2022/11/22 10:05:42;;;;;;;15.75;4.68;;;;;;;7.53;100.00;97135.81;5038850;28;20024;-86
2022/11/22 10:08:16;;;;;;;10.63;4.07;;;;;;;7.72;100.00;97162.72;5030114;28;20025;-85
2022/11/22 10:10:42;;;;;;;9.30;3.40;;;;;;;7.89;100.00;97179.91;5031841;28;20031;-85
2022/11/22 10:13:21;;;;;;;11.02;3.30;;;;;;;7.76;100.00;97175.50;5035852;28;20079;-84
2022/11/22 10:15:59;;;;;;;10.25;3.00;;;;;;;7.75;100.00;97186.47;5035446;28;20108;-85
2022/11/22 10:18:37;;;;;;;11.75;4.25;;;;;;;7.86;100.00;97186.56;5034649;28;20040;-86
2022/11/22 10:21:03;;;;;;;7.20;2.47;;;;;;;7.88;100.00;97186.31;5045005;28;20032;-86
2022/11/22 10:23:31;;;;;;;11.85;2.20;;;;;;;7.64;100.00;97153.06;5032579;28;20396;-84
2022/11/22 10:25:58;;;;;;;9.68;2.38;;;;;;;7.79;100.00;97180.44;5029201;28;20442;-86
2022/11/22 10:32:22;;;;;;;10.60;3.72;;;;;;;8.00;100.00;97181.81;5043838;28;20392;-86
2022/11/22 10:35:02;;;;;;;12.50;2.53;;;;;;;7.86;100.00;97165.03;5049856;28;20028;-86
2022/11/22 10:37:57;;;;;;;10.57;2.70;;;;;;;8.13;100.00;97192.44;5043492;28;20064;-85
2022/11/22 10:40:32;;;;;;;10.48;2.35;;;;;;;8.02;100.00;97165.47;5019613;28;20041;-86
2022/11/22 10:43:15;;;;;;;11.00;2.50;;;;;;;8.21;100.00;97198.56;5025449;28;20029;-86
2022/11/22 10:46:14;;;;;;;7.50;2.10;;;;;;;7.87;100.00;97165.84;5046373;28;20058;-85
2022/11/22 10:48:48;;;;;;;7.32;2.05;;;;;;;7.98;100.00;97173.16;5031955;28;20060;-85
2022/11/22 10:51:21;;;;;;;7.78;1.80;;;;;;;8.07;100.00;97190.66;5052945;28;20021;-85
2022/11/22 10:53:51;;;;;;;15.95;1.98;;;;;;;7.87;100.00;97152.38;5053221;28;20040;-87
2022/11/22 10:56:29;;;;;;;8.65;1.85;;;;;;;8.15;100.00;97186.81;5039560;28;20031;-86
2022/11/22 10:59:11;;;;;;;8.80;2.00;;;;;;;8.07;100.00;97165.59;5037478;28;20025;-88
2022/11/22 11:01:57;;;;;;;5.45;1.67;;;;;;;8.15;100.00;97177.91;5031279;28;20047;-85
2022/11/22 11:04:24;;;;;;;12.52;2.13;;;;;;;8.15;100.00;97173.34;5034951;28;20057;-84
2022/11/22 11:06:55;;;;;;;9.43;2.35;;;;;;;8.22;100.00;97170.56;5026350;28;20466;-85
2022/11/22 11:09:37;;;;;;;12.50;2.10;;;;;;;8.14;100.00;97144.75;5032506;28;20039;-86
2022/11/22 11:12:11;;;;;;;7.45;2.10;;;;;;;8.16;100.00;97179.56;5029658;28;20035;-87
2022/11/22 11:14:44;;;;;;;6.22;1.52;;;;;;;8.29;100.00;97182.88;5035160;28;20033;-87
2022/11/22 11:20:39;;;;;;;10.57;1.67;;;;;;;8.25;100.00;97160.16;5044806;28;20561;-86
2022/11/22 11:23:05;;;;;;;11.93;2.20;;;;;;;8.27;100.00;97132.97;5018121;28;20542;-86
2022/11/22 11:25:30;;;;;;;3.70;1.42;;;;;;;8.38;100.00;97171.78;5034279;28;20029;-85
2022/11/22 11:31:20;;;;;;;5.75;2.13;;;;;;;8.42;100.00;97151.44;5053744;28;20056;-82
2022/11/22 11:33:46;;;;;;;7.88;1.52;;;;;;;8.08;100.00;97091.81;5040181;28;20166;-85
2022/11/22 11:36:21;;;;;;;9.05;1.70;;;;;;;8.54;100.00;97128.88;5043608;28;20047;-85
2022/11/22 11:38:56;;;;;;;7.40;1.83;;;;;;;8.82;100.00;97130.06;5058792;28;20024;-84
2022/11/22 11:41:57;;;;;;;2.40;1.02;;;;;;;8.88;100.00;97141.78;5043217;28;20025;-86
2022/11/22 11:44:27;;;;;;;9.90;1.73;;;;;;;9.07;100.00;97134.44;5008163;28;20037;-83
2022/11/22 11:46:53;;;;;;;17.73;1.65;;;;;;;8.99;100.00;97125.63;5046966;28;20475;-83
2022/11/22 11:49:27;;;;;;;12.88;1.75;;;;;;;9.14;100.00;97125.16;5053396;28;20029;-82
2022/11/22 11:52:11;;;;;;;4.97;1.25;;;;;;;8.88;100.00;97133.69;5042277;28;20226;-85
2022/11/22 11:54:36;;;;;;;3.97;1.30;;;;;;;9.18;100.00;97118.22;5045218;28;20036;-82
2022/11/22 11:57:03;;;;;;;6.80;1.38;;;;;;;9.31;100.00;97109.06;5054348;28;20029;-85
2022/11/22 12:02:57;;;;;;;6.70;1.50;;;;;;;9.87;100.00;97102.09;5047282;28;20063;-83
2022/11/22 12:05:31;;;;;;;6.82;1.30;;;;;;;9.88;100.00;97111.06;5036713;28;20032;-84
2022/11/22 12:07:57;;;;;;;8.88;1.63;;;;;;;9.54;100.00;97096.59;5040815;28;20084;-83
2022/11/22 12:10:28;;;;;;;6.88;1.58;;;;;;;9.82;100.00;97106.59;5044555;28;20033;-86
2022/11/22 12:13:20;;;;;;;6.20;1.60;;;;;;;10.06;100.00;97104.59;5033076;28;20056;-84